Time;durP1;ratioP1;P1;durP2;ratioP2;P2;SDS_P1;SDS_P2;PMS_P1;PMS_P2;Temp;Humidity;BMP_temperature;BMP_pressure;BME280_temperature;BME280_humidity;BME280_pressure;Samples;Min_cycle;Max_cycle;Signal;HPM_P1;HPM_P2
2022/08/10 00:01:17;;;;;;;4.60;1.85;;;17.50;99.90;;;;;;5070481;28;20057;-50
2022/08/10 00:03:44;;;;;;;5.20;2.35;;;17.60;99.90;;;;;;5070929;28;20391;-50
2022/08/10 00:06:10;;;;;;;5.43;1.98;;;17.60;99.90;;;;;;5070589;28;20483;-45
2022/08/10 00:08:36;;;;;;;5.43;1.80;;;17.60;99.90;;;;;;5071163;28;20035;-52
2022/08/10 00:11:02;;;;;;;6.20;2.10;;;17.60;99.90;;;;;;5070627;28;20429;-52
2022/08/10 00:13:28;;;;;;;3.50;1.92;;;17.50;99.90;;;;;;5070893;28;20037;-51
2022/08/10 00:15:54;;;;;;;3.45;2.08;;;17.50;99.90;;;;;;5070343;28;20029;-48
2022/08/10 00:18:20;;;;;;;3.47;1.90;;;17.50;99.90;;;;;;5070804;28;20419;-55
2022/08/10 00:20:45;;;;;;;5.03;1.98;;;17.50;99.90;;;;;;5069140;28;20036;-52
2022/08/10 00:23:11;;;;;;;6.35;2.15;;;17.50;99.90;;;;;;5070129;28;20048;-48
2022/08/10 00:25:37;;;;;;;5.35;2.22;;;17.50;99.90;;;;;;5069119;28;20079;-47
2022/08/10 00:28:02;;;;;;;6.68;1.80;;;17.50;99.90;;;;;;5070692;28;20104;-48
2022/08/10 00:30:28;;;;;;;6.35;2.10;;;17.50;99.90;;;;;;5070330;28;20029;-45
2022/08/10 00:32:54;;;;;;;4.10;2.00;;;17.50;99.90;;;;;;5070497;28;20031;-44
2022/08/10 00:35:20;;;;;;;3.78;1.95;;;17.50;99.90;;;;;;5069231;28;20028;-49
2022/08/10 00:37:45;;;;;;;4.25;2.10;;;17.50;99.90;;;;;;5070631;28;20017;-44
2022/08/10 00:40:11;;;;;;;5.00;2.20;;;17.50;99.90;;;;;;5070397;28;20029;-50
2022/08/10 00:42:37;;;;;;;5.28;2.40;;;17.50;99.90;;;;;;5070490;28;20487;-44
2022/08/10 00:45:03;;;;;;;6.80;2.08;;;17.50;99.90;;;;;;5070084;28;20031;-46
2022/08/10 00:47:29;;;;;;;6.78;2.00;;;17.50;99.90;;;;;;5072188;28;20121;-49
2022/08/10 00:49:55;;;;;;;8.82;2.28;;;17.50;99.90;;;;;;5073768;28;20497;-44
2022/08/10 00:52:23;;;;;;;5.03;1.83;;;17.50;99.90;;;;;;5074301;28;20031;-45
2022/08/10 00:54:49;;;;;;;5.10;2.22;;;17.50;99.90;;;;;;5074021;28;20056;-49
2022/08/10 00:57:16;;;;;;;4.03;2.10;;;17.50;99.90;;;;;;5068458;28;20024;-51
2022/08/10 00:59:42;;;;;;;5.75;2.53;;;17.50;99.90;;;;;;5072929;28;20468;-44
2022/08/10 01:02:08;;;;;;;3.47;1.90;;;17.50;99.90;;;;;;5074000;28;20066;-46
2022/08/10 01:04:33;;;;;;;4.88;2.05;;;17.50;99.90;;;;;;5073820;28;20440;-44
2022/08/10 01:07:08;;;;;;;6.07;2.05;;;17.50;99.90;;;;;;5073877;28;20383;-46
2022/08/10 01:10:07;;;;;;;7.57;2.20;;;17.50;99.90;;;;;;5073570;28;20494;-47
2022/08/10 01:12:47;;;;;;;5.45;2.20;;;17.50;99.90;;;;;;5069511;28;20037;-45
2022/08/10 01:15:26;;;;;;;5.53;2.50;;;17.50;99.90;;;;;;5073552;28;20039;-52
2022/08/10 01:17:56;;;;;;;11.65;3.67;;;17.40;99.90;;;;;;5073589;28;20030;-47
2022/08/10 01:20:25;;;;;;;8.52;4.03;;;17.50;99.90;;;;;;5073324;28;20143;-48
2022/08/10 01:23:20;;;;;;;3.73;2.13;;;17.50;99.90;;;;;;5073626;28;20174;-49
2022/08/10 01:25:54;;;;;;;6.70;2.28;;;17.50;99.90;;;;;;5063418;28;20301;-57
2022/08/10 01:28:45;;;;;;;4.65;2.25;;;17.50;99.90;;;;;;5059344;28;20063;-47
2022/08/10 01:31:19;;;;;;;3.92;2.15;;;17.40;99.90;;;;;;5072847;28;20032;-44
2022/08/10 01:33:56;;;;;;;4.57;2.30;;;17.40;99.90;;;;;;5072886;28;20028;-44
2022/08/10 01:36:40;;;;;;;5.57;1.90;;;17.40;99.90;;;;;;5072951;28;20021;-46
2022/08/10 01:39:06;;;;;;;4.13;2.28;;;17.40;99.90;;;;;;5073007;28;20032;-44
2022/08/10 01:41:44;;;;;;;5.40;2.22;;;17.40;99.90;;;;;;5072804;28;20036;-49
2022/08/10 01:44:15;;;;;;;4.82;2.40;;;17.40;99.90;;;;;;5073174;28;20097;-46
2022/08/10 01:46:47;;;;;;;5.43;2.33;;;17.40;99.90;;;;;;5072690;28;20024;-44
2022/08/10 01:49:16;;;;;;;5.70;2.25;;;17.40;99.90;;;;;;5073325;28;20063;-54
2022/08/10 01:51:48;;;;;;;4.65;2.28;;;17.50;99.90;;;;;;5072483;28;20117;-50
2022/08/10 01:54:19;;;;;;;4.60;2.28;;;17.50;99.90;;;;;;5071854;28;20032;-46
2022/08/10 01:56:51;;;;;;;6.13;2.25;;;17.50;99.90;;;;;;5072747;28;20078;-44
2022/08/10 01:59:30;;;;;;;6.32;2.53;;;17.50;99.90;;;;;;5072811;28;20027;-50
2022/08/10 02:02:03;;;;;;;7.88;3.53;;;17.40;99.90;;;;;;5073002;28;20044;-49
2022/08/10 02:04:31;;;;;;;5.97;2.25;;;17.50;99.90;;;;;;5071513;28;20027;-49
2022/08/10 02:06:59;;;;;;;4.80;2.20;;;17.40;99.90;;;;;;5071868;28;20036;-52
2022/08/10 02:09:29;;;;;;;5.25;2.47;;;17.40;99.90;;;;;;5072692;28;20036;-49
2022/08/10 02:11:59;;;;;;;5.75;2.28;;;17.40;99.90;;;;;;5072288;28;20028;-52
2022/08/10 02:14:30;;;;;;;5.47;2.60;;;17.40;99.90;;;;;;5072574;28;20083;-52
2022/08/10 02:16:58;;;;;;;4.47;2.30;;;17.40;99.90;;;;;;5063630;28;20020;-48
2022/08/10 02:19:27;;;;;;;6.35;2.35;;;17.40;99.90;;;;;;5072372;28;20103;-44
2022/08/10 02:21:54;;;;;;;6.03;2.50;;;17.40;99.90;;;;;;5072362;28;20028;-43
2022/08/10 02:24:21;;;;;;;6.95;2.30;;;17.40;99.90;;;;;;5071055;28;20033;-44
2022/08/10 02:26:49;;;;;;;6.97;2.53;;;17.40;99.90;;;;;;5072198;28;20408;-43
2022/08/10 02:29:16;;;;;;;4.63;2.17;;;17.50;99.90;;;;;;5072378;28;20024;-47
2022/08/10 02:31:43;;;;;;;4.85;2.13;;;17.50;99.90;;;;;;5070445;28;20085;-46
2022/08/10 02:34:11;;;;;;;4.18;2.08;;;17.50;99.90;;;;;;5072324;28;20048;-48
2022/08/10 02:36:43;;;;;;;6.50;2.67;;;17.50;99.90;;;;;;5071832;28;20070;-43
2022/08/10 02:39:10;;;;;;;4.22;2.40;;;17.50;99.90;;;;;;5072131;28;20024;-50
2022/08/10 02:41:53;;;;;;;5.93;2.63;;;17.40;99.90;;;;;;5071147;28;20028;-53
2022/08/10 02:44:24;;;;;;;6.43;2.60;;;17.40;99.90;;;;;;5063872;28;20112;-48
2022/08/10 02:47:06;;;;;;;7.05;2.03;;;17.40;99.90;;;;;;5071379;28;20540;-45
2022/08/10 02:49:41;;;;;;;4.88;2.72;;;17.40;99.90;;;;;;5071826;28;20471;-49
2022/08/10 02:52:15;;;;;;;5.82;2.55;;;17.40;99.90;;;;;;5071556;28;20085;-49
2022/08/10 02:54:50;;;;;;;6.32;2.50;;;17.50;99.90;;;;;;5071657;28;20034;-49
2022/08/10 02:57:25;;;;;;;7.80;2.40;;;17.40;99.90;;;;;;5058128;28;20032;-49
2022/08/10 02:59:56;;;;;;;5.88;2.55;;;17.40;99.90;;;;;;5071428;28;20169;-48
2022/08/10 03:02:31;;;;;;;6.63;2.42;;;17.40;99.90;;;;;;5070299;28;20123;-52
2022/08/10 03:05:03;;;;;;;6.03;2.63;;;17.40;99.90;;;;;;5071393;28;20027;-46
2022/08/10 03:08:00;;;;;;;4.95;2.55;;;17.40;99.90;;;;;;5057918;28;20020;-57
2022/08/10 03:10:29;;;;;;;4.85;2.80;;;17.40;99.90;;;;;;5069493;28;20505;-47
2022/08/10 03:12:59;;;;;;;4.90;2.70;;;17.40;99.90;;;;;;5071439;28;20103;-46
2022/08/10 03:15:27;;;;;;;8.60;2.92;;;17.50;99.90;;;;;;5071253;28;20120;-44
2022/08/10 03:17:55;;;;;;;7.03;2.88;;;17.40;99.90;;;;;;5070978;28;20414;-50
2022/08/10 03:20:22;;;;;;;4.72;2.42;;;17.40;99.90;;;;;;5070774;28;20094;-47
2022/08/10 03:22:51;;;;;;;4.95;2.70;;;17.30;99.90;;;;;;5071319;28;20032;-53
2022/08/10 03:25:20;;;;;;;5.60;2.67;;;17.30;99.90;;;;;;5071107;28;20025;-47
2022/08/10 03:27:48;;;;;;;9.95;2.83;;;17.30;99.90;;;;;;5071197;28;20471;-51
2022/08/10 03:30:14;;;;;;;4.65;2.88;;;17.30;99.90;;;;;;5071072;28;20033;-48
2022/08/10 03:32:41;;;;;;;8.13;2.90;;;17.30;99.90;;;;;;5071281;28;20024;-48
2022/08/10 03:35:08;;;;;;;8.48;2.72;;;17.40;99.90;;;;;;5071309;28;20107;-44
2022/08/10 03:37:34;;;;;;;5.80;2.70;;;17.40;99.90;;;;;;5071011;28;20024;-47
2022/08/10 03:39:59;;;;;;;6.10;2.63;;;17.40;99.90;;;;;;5070842;28;20023;-47
2022/08/10 03:42:26;;;;;;;5.43;2.88;;;17.30;99.90;;;;;;5070961;28;20112;-49
2022/08/10 03:44:53;;;;;;;7.32;3.22;;;17.30;99.90;;;;;;5071094;28;20020;-50
2022/08/10 03:47:22;;;;;;;6.75;3.00;;;17.30;99.90;;;;;;5070948;28;20025;-44
2022/08/10 03:49:49;;;;;;;5.40;2.95;;;17.30;99.90;;;;;;5070796;28;20442;-48
2022/08/10 03:52:16;;;;;;;9.48;3.00;;;17.30;99.90;;;;;;5070232;28;20028;-49
2022/08/10 03:54:42;;;;;;;6.25;2.75;;;17.30;99.90;;;;;;5070539;28;20410;-49
2022/08/10 03:57:10;;;;;;;7.93;3.17;;;17.30;99.90;;;;;;5070909;28;20050;-49
2022/08/10 03:59:37;;;;;;;6.78;2.85;;;17.30;99.90;;;;;;5070787;28;20025;-47
2022/08/10 04:02:05;;;;;;;6.78;3.13;;;17.20;99.90;;;;;;5070138;28;20048;-52
2022/08/10 04:04:31;;;;;;;5.63;2.92;;;17.20;99.90;;;;;;5070675;28;20103;-49
2022/08/10 04:06:58;;;;;;;5.60;2.40;;;17.20;99.90;;;;;;5070815;28;20104;-50
2022/08/10 04:09:32;;;;;;;8.13;3.08;;;17.20;99.90;;;;;;5070858;28;20469;-50
2022/08/10 04:11:57;;;;;;;6.15;2.95;;;17.20;99.90;;;;;;5070480;28;20100;-53
2022/08/10 04:14:23;;;;;;;8.13;2.90;;;17.20;99.90;;;;;;5070830;28;20485;-52
2022/08/10 04:16:49;;;;;;;5.60;2.90;;;17.20;99.90;;;;;;5070974;28;20043;-48
2022/08/10 04:19:17;;;;;;;8.77;3.05;;;17.20;99.90;;;;;;5070709;28;20025;-54
2022/08/10 04:21:46;;;;;;;8.05;2.90;;;17.20;99.90;;;;;;5070681;28;20089;-56
2022/08/10 04:24:20;;;;;;;9.52;3.50;;;17.20;99.90;;;;;;5074306;28;20075;-45
2022/08/10 04:26:45;;;;;;;7.50;2.88;;;17.20;99.90;;;;;;5074639;28;20115;-44
2022/08/10 04:29:12;;;;;;;6.82;3.20;;;17.20;99.90;;;;;;5074650;28;20470;-48
2022/08/10 04:31:39;;;;;;;6.13;2.90;;;17.20;99.90;;;;;;5074555;28;20039;-51
2022/08/10 04:34:06;;;;;;;6.82;2.92;;;17.20;99.90;;;;;;5074573;28;20063;-47
2022/08/10 04:36:33;;;;;;;7.13;3.05;;;17.20;99.90;;;;;;5074624;28;20025;-43
2022/08/10 04:38:59;;;;;;;7.15;2.95;;;17.20;99.90;;;;;;5073326;28;20025;-44
2022/08/10 04:41:26;;;;;;;7.47;2.70;;;17.30;99.90;;;;;;5074188;28;20094;-47
2022/08/10 04:43:52;;;;;;;8.07;3.08;;;17.20;99.90;;;;;;5074292;28;20395;-43
2022/08/10 04:46:17;;;;;;;7.78;3.42;;;17.30;99.90;;;;;;5074272;28;20039;-48
2022/08/10 04:48:43;;;;;;;8.55;3.70;;;17.30;99.90;;;;;;5073930;28;20438;-43
2022/08/10 04:51:16;;;;;;;9.95;3.75;;;17.30;99.90;;;;;;5073936;28;20104;-44
2022/08/10 04:53:42;;;;;;;9.05;3.70;;;17.30;99.90;;;;;;5061982;28;20051;-48
2022/08/10 04:56:08;;;;;;;8.15;3.40;;;17.40;99.90;;;;;;5074252;28;20032;-45
2022/08/10 04:58:34;;;;;;;9.65;3.38;;;17.40;99.90;;;;;;5074057;28;20718;-43
2022/08/10 05:01:01;;;;;;;10.40;3.67;;;17.40;99.90;;;;;;5073824;28;20098;-44
2022/08/10 05:03:26;;;;;;;8.57;3.53;;;17.40;99.90;;;;;;5073194;28;20115;-51
2022/08/10 05:05:52;;;;;;;7.38;3.60;;;17.50;99.90;;;;;;5073710;28;20096;-46
2022/08/10 05:08:18;;;;;;;8.40;3.22;;;17.50;99.90;;;;;;5073812;28;20028;-44
2022/08/10 05:10:43;;;;;;;7.97;2.92;;;17.50;99.90;;;;;;5073936;28;20079;-44
2022/08/10 05:13:09;;;;;;;10.45;4.07;;;17.50;99.90;;;;;;5073502;28;20466;-49
2022/08/10 05:15:35;;;;;;;8.10;3.08;;;17.50;99.90;;;;;;5073770;28;20078;-52
2022/08/10 05:18:00;;;;;;;7.28;2.90;;;17.50;99.90;;;;;;5073692;28;20166;-52
2022/08/10 05:20:26;;;;;;;7.30;3.03;;;17.60;99.90;;;;;;5073632;28;20024;-47
2022/08/10 05:22:52;;;;;;;5.72;2.80;;;17.60;99.90;;;;;;5073258;28;20025;-47
2022/08/10 05:25:19;;;;;;;8.50;2.90;;;17.70;99.90;;;;;;5073541;28;20020;-48
2022/08/10 05:27:46;;;;;;;8.57;3.22;;;17.70;99.90;;;;;;5073292;28;20421;-47
2022/08/10 05:30:16;;;;;;;8.02;2.97;;;17.70;99.90;;;;;;5073581;28;20074;-48
2022/08/10 05:32:42;;;;;;;7.70;3.28;;;17.80;99.90;;;;;;5072590;28;20047;-53
2022/08/10 05:35:08;;;;;;;4.65;2.45;;;17.90;99.90;;;;;;5073376;28;20025;-48
2022/08/10 05:37:34;;;;;;;7.93;2.90;;;17.90;99.90;;;;;;5073115;28;20021;-47
2022/08/10 05:40:02;;;;;;;8.10;3.28;;;18.00;99.90;;;;;;5073217;28;20025;-44
2022/08/10 05:42:29;;;;;;;8.93;3.53;;;18.00;99.90;;;;;;5072704;28;20119;-46
2022/08/10 05:44:55;;;;;;;6.13;3.15;;;18.00;99.90;;;;;;5072324;28;20028;-47
2022/08/10 05:47:21;;;;;;;10.18;3.10;;;18.00;99.90;;;;;;5073137;28;20038;-46
2022/08/10 06:01:15;;;;;;;8.25;3.00;;;18.20;99.90;;;;;;5131047;27;20387;-45
2022/08/10 06:03:52;;;;;;;6.90;2.50;;;18.50;99.90;;;;;;5129475;27;20051;-55
2022/08/10 06:06:20;;;;;;;5.28;2.17;;;18.70;99.90;;;;;;5128876;27;20072;-49
2022/08/10 06:08:48;;;;;;;7.45;2.35;;;19.10;99.90;;;;;;5128846;27;20061;-44
2022/08/10 06:11:15;;;;;;;5.80;2.10;;;20.10;99.90;;;;;;5132130;27;20076;-44
2022/08/10 06:16:31;;;;;;;7.30;2.08;;;21.60;99.90;;;;;;5128795;28;20088;-46
2022/08/10 06:18:58;;;;;;;6.07;2.17;;;21.90;99.90;;;;;;5128943;27;20110;-44
2022/08/10 06:21:24;;;;;;;6.30;2.00;;;22.30;99.20;;;;;;5132961;27;20043;-46
2022/08/10 06:23:51;;;;;;;4.95;1.77;;;23.00;98.00;;;;;;5128802;27;20081;-50
2022/08/10 06:26:17;;;;;;;7.18;1.73;;;24.00;96.30;;;;;;5128478;27;20486;-46
2022/08/10 06:28:58;;;;;;;5.80;1.60;;;25.00;94.50;;;;;;5128642;28;20035;-45
2022/08/10 06:31:26;;;;;;;8.10;2.17;;;26.00;93.00;;;;;;5134661;27;20030;-47
2022/08/10 06:33:53;;;;;;;4.35;1.30;;;26.70;91.30;;;;;;5128607;27;20026;-53
2022/08/10 06:36:20;;;;;;;3.88;1.63;;;27.30;90.60;;;;;;5128315;27;20017;-54
2022/08/10 06:38:47;;;;;;;4.20;1.60;;;27.70;87.50;;;;;;5134315;27;20031;-46
2022/08/10 06:41:22;;;;;;;3.03;1.45;;;27.60;87.60;;;;;;5128264;27;20024;-53
2022/08/10 06:43:57;;;;;;;3.72;1.38;;;28.30;84.80;;;;;;5128184;27;20028;-45
2022/08/10 06:46:24;;;;;;;6.90;1.92;;;28.50;85.00;;;;;;5127794;27;20028;-50
2022/08/10 06:48:55;;;;;;;4.05;1.30;;;29.10;84.30;;;;;;5121525;27;20506;-53
2022/08/10 06:51:25;;;;;;;4.60;1.45;;;29.70;81.60;;;;;;5107654;28;20070;-48
2022/08/10 06:53:58;;;;;;;5.60;1.35;;;30.20;81.00;;;;;;5107359;28;20360;-52
2022/08/10 06:56:26;;;;;;;4.55;1.40;;;30.50;78.90;;;;;;5107218;28;20048;-49
2022/08/10 06:58:53;;;;;;;4.93;1.52;;;30.50;75.70;;;;;;5123784;27;20388;-46
2022/08/10 07:01:22;;;;;;;3.17;1.30;;;30.60;76.60;;;;;;5116777;28;20020;-48
2022/08/10 07:03:55;;;;;;;4.32;1.45;;;31.20;76.10;;;;;;5110095;28;20049;-47
2022/08/10 07:06:21;;;;;;;4.57;1.10;;;31.10;73.90;;;;;;5111969;28;20531;-46
2022/08/10 07:08:49;;;;;;;2.42;1.00;;;31.40;73.80;;;;;;5111574;27;20020;-48
2022/08/10 07:11:16;;;;;;;;;;;31.20;70.70;;;;;;5111083;28;20379;-49
2022/08/10 07:13:43;;;;;;;5.15;1.33;;;31.10;70.70;;;;;;5111109;27;19915;-55
2022/08/10 07:16:12;;;;;;;4.05;1.10;;;30.60;70.60;;;;;;5109701;28;20055;-52
2022/08/10 07:18:38;;;;;;;4.80;1.27;;;30.50;71.50;;;;;;5111262;27;20027;-49
2022/08/10 07:21:06;;;;;;;3.53;1.15;;;31.20;73.80;;;;;;5108478;28;20020;-54
2022/08/10 07:23:33;;;;;;;5.03;1.50;;;31.70;70.40;;;;;;5103380;28;20020;-51
2022/08/10 07:26:00;;;;;;;2.80;1.20;;;32.10;67.40;;;;;;5103535;28;20074;-52
2022/08/10 07:28:28;;;;;;;7.10;1.40;;;32.40;67.30;;;;;;5114638;27;20031;-53
2022/08/10 07:30:56;;;;;;;4.60;1.30;;;32.40;67.00;;;;;;5110426;28;20028;-52
2022/08/10 07:33:22;;;;;;;;;;;32.90;65.30;;;;;;5109596;28;20065;-50
2022/08/10 07:35:49;;;;;;;2.42;1.20;;;33.60;65.50;;;;;;5111467;28;19970;-49
2022/08/10 07:38:22;;;;;;;4.28;1.15;;;34.20;60.60;;;;;;5108712;28;20030;-46
2022/08/10 07:40:50;;;;;;;4.95;1.50;;;34.30;60.60;;;;;;5106310;27;20132;-51
2022/08/10 07:43:19;;;;;;;3.08;0.90;;;34.30;59.00;;;;;;5109077;27;20024;-53
2022/08/10 07:45:47;;;;;;;4.97;1.25;;;35.20;59.80;;;;;;5111272;28;20020;-53
2022/08/10 07:48:27;;;;;;;5.63;1.17;;;35.20;55.70;;;;;;5106126;27;20452;-51
2022/08/10 07:50:58;;;;;;;4.43;1.00;;;34.90;55.20;;;;;;5098942;28;20402;-45
2022/08/10 07:53:26;;;;;;;2.83;0.98;;;35.50;55.20;;;;;;5097769;28;20107;-51
2022/08/10 07:55:54;;;;;;;4.00;1.20;;;36.00;54.00;;;;;;5104933;27;20031;-48
2022/08/10 07:58:28;;;;;;;3.15;0.93;;;35.40;52.40;;;;;;5105681;27;20028;-48
2022/08/10 08:00:56;;;;;;;3.30;1.15;;;34.70;54.20;;;;;;5107569;27;20082;-51
2022/08/10 08:03:24;;;;;;;3.45;1.23;;;35.10;54.00;;;;;;5109067;28;20019;-51
2022/08/10 08:05:51;;;;;;;3.13;1.00;;;35.30;54.00;;;;;;5108352;27;20584;-48
2022/08/10 08:08:20;;;;;;;4.53;1.27;;;35.20;52.70;;;;;;5106344;27;20066;-50
2022/08/10 08:10:47;;;;;;;3.88;1.10;;;34.70;52.10;;;;;;5103054;28;20123;-49
2022/08/10 08:13:15;;;;;;;2.92;1.13;;;34.80;52.50;;;;;;5091059;28;20039;-48
2022/08/10 08:15:43;;;;;;;3.22;0.90;;;35.30;52.80;;;;;;5096721;28;20059;-49
2022/08/10 08:18:10;;;;;;;2.78;1.10;;;35.00;53.00;;;;;;5098816;27;20030;-48
2022/08/10 08:20:36;;;;;;;3.53;1.00;;;34.90;50.70;;;;;;5111605;27;20031;-49
2022/08/10 08:23:03;;;;;;;5.20;1.20;;;35.10;51.90;;;;;;5110874;28;20462;-53
2022/08/10 08:25:31;;;;;;;4.30;1.20;;;35.90;51.00;;;;;;5101126;28;20021;-51
2022/08/10 08:28:00;;;;;;;6.45;1.25;;;36.20;48.70;;;;;;5110050;27;20115;-48
2022/08/10 08:30:27;;;;;;;5.13;1.42;;;36.30;49.20;;;;;;5116551;27;20035;-47
2022/08/10 08:32:54;;;;;;;2.78;1.08;;;36.70;49.40;;;;;;5101555;28;20060;-47
2022/08/10 08:35:21;;;;;;;2.67;1.20;;;37.30;48.40;;;;;;5108283;28;20479;-47
2022/08/10 08:37:51;;;;;;;3.33;1.20;;;37.50;47.10;;;;;;5110566;27;20045;-47
2022/08/10 08:40:27;;;;;;;3.33;1.10;;;37.50;46.50;;;;;;5107359;28;20035;-45
2022/08/10 08:43:20;;;;;;;6.38;1.38;;;37.90;46.10;;;;;;5104363;28;20036;-47
2022/08/10 08:46:11;;;;;;;4.43;1.50;;;37.90;44.80;;;;;;5109000;27;20036;-49
2022/08/10 08:49:06;;;;;;;4.70;1.58;;;37.80;45.50;;;;;;5105156;27;20107;-45
2022/08/10 08:52:01;;;;;;;5.82;1.33;;;37.80;44.20;;;;;;5107302;28;20028;-47
2022/08/10 08:54:35;;;;;;;2.50;1.23;;;37.80;43.60;;;;;;5106957;28;20024;-49
2022/08/10 08:57:30;;;;;;;5.25;1.52;;;36.80;43.10;;;;;;5091689;28;20032;-48
2022/08/10 09:00:12;;;;;;;3.63;1.40;;;37.20;45.50;;;;;;5107244;28;20396;-58
2022/08/10 09:03:11;;;;;;;3.20;1.48;;;37.80;43.60;;;;;;5111944;27;20031;-49
2022/08/10 09:06:15;;;;;;;3.80;1.58;;;37.60;43.70;;;;;;5111848;28;20036;-51
2022/08/10 09:08:59;;;;;;;2.50;1.15;;;38.20;43.80;;;;;;5109386;27;20023;-52
2022/08/10 09:11:44;;;;;;;6.00;1.30;;;38.70;42.10;;;;;;5106758;28;20024;-54
2022/08/10 09:14:30;;;;;;;6.90;1.30;;;38.10;41.90;;;;;;5104804;27;20024;-46
2022/08/10 09:17:22;;;;;;;4.20;1.30;;;37.70;42.80;;;;;;5090620;28;20055;-45
2022/08/10 09:20:05;;;;;;;3.60;1.25;;;37.80;43.40;;;;;;5106491;27;20046;-46
2022/08/10 09:22:36;;;;;;;5.05;1.40;;;37.50;43.10;;;;;;5090746;28;20116;-45
2022/08/10 09:25:05;;;;;;;3.03;1.23;;;38.00;43.30;;;;;;5108568;28;20530;-49
2022/08/10 09:27:45;;;;;;;3.53;1.30;;;38.40;43.70;;;;;;5109537;28;20031;-50
2022/08/10 09:30:21;;;;;;;3.22;1.23;;;38.40;42.20;;;;;;5104632;28;20161;-52
2022/08/10 09:32:51;;;;;;;3.55;1.30;;;37.70;42.70;;;;;;5106183;27;20020;-55
2022/08/10 09:35:20;;;;;;;2.97;1.10;;;36.90;43.40;;;;;;5116145;27;20028;-50
2022/08/10 09:38:10;;;;;;;4.75;1.80;;;37.40;44.40;;;;;;5110911;27;20281;-50
2022/08/10 09:41:08;;;;;;;2.95;1.38;;;36.50;44.10;;;;;;5106899;27;20043;-45
2022/08/10 09:44:13;;;;;;;4.20;1.30;;;36.30;45.40;;;;;;5109791;27;20023;-45
2022/08/10 09:46:58;;;;;;;3.30;1.30;;;36.40;44.30;;;;;;5111430;28;20499;-46
2022/08/10 09:49:26;;;;;;;3.53;1.23;;;36.70;44.30;;;;;;5110717;28;20047;-52
2022/08/10 09:52:10;;;;;;;4.20;1.52;;;37.00;43.20;;;;;;5112633;28;20023;-51
2022/08/10 09:54:57;;;;;;;4.90;1.65;;;36.50;42.60;;;;;;5109961;28;20030;-47
2022/08/10 09:57:37;;;;;;;3.80;1.23;;;36.30;43.70;;;;;;5098458;28;20027;-52
2022/08/10 10:00:14;;;;;;;2.95;1.33;;;36.20;45.10;;;;;;5114760;28;20049;-48
2022/08/10 10:03:05;;;;;;;5.53;1.42;;;36.40;44.30;;;;;;5105874;27;20039;-53
2022/08/10 10:05:36;;;;;;;5.18;1.48;;;36.50;43.90;;;;;;5092889;28;20031;-53
2022/08/10 10:08:26;;;;;;;4.93;1.40;;;36.50;43.30;;;;;;5106866;28;20062;-54
2022/08/10 10:11:11;;;;;;;2.83;1.33;;;36.40;40.70;;;;;;5105291;28;20480;-50
2022/08/10 10:14:15;;;;;;;5.53;1.65;;;35.70;42.60;;;;;;5090449;28;20031;-47
2022/08/10 10:16:41;;;;;;;2.13;1.20;;;36.10;43.30;;;;;;5100224;28;20101;-48
2022/08/10 10:19:23;;;;;;;2.33;1.30;;;36.80;43.60;;;;;;5099780;28;20101;-52
2022/08/10 10:22:08;;;;;;;4.20;1.50;;;36.90;41.00;;;;;;5103961;28;20197;-50
2022/08/10 10:24:39;;;;;;;5.22;1.40;;;37.00;41.00;;;;;;5091511;28;20028;-47
2022/08/10 10:27:22;;;;;;;3.58;1.30;;;37.10;40.80;;;;;;5102527;27;20025;-46
2022/08/10 10:30:02;;;;;;;3.72;1.20;;;36.30;41.40;;;;;;5096757;28;20043;-47
2022/08/10 10:32:43;;;;;;;4.25;1.60;;;36.10;40.90;;;;;;5112975;27;20046;-52
2022/08/10 10:35:21;;;;;;;2.65;1.30;;;35.70;42.20;;;;;;5115891;27;20056;-51
2022/08/10 10:37:50;;;;;;;5.45;1.40;;;35.50;43.30;;;;;;5102056;28;20032;-50
2022/08/10 10:40:18;;;;;;;3.55;1.63;;;34.90;43.90;;;;;;5120890;27;20492;-50
2022/08/10 10:43:02;;;;;;;;;;;35.00;42.30;;;;;;5112629;27;20035;-47
2022/08/10 10:45:50;;;;;;;4.70;1.38;;;34.80;43.70;;;;;;5120627;27;19920;-50
2022/08/10 10:48:27;;;;;;;;;;;34.70;42.70;;;;;;5109572;27;20480;-51
2022/08/10 10:51:24;;;;;;;4.55;1.40;;;35.00;44.40;;;;;;5106683;27;19908;-50
2022/08/10 10:54:23;;;;;;;4.45;1.33;;;34.50;44.50;;;;;;5104929;28;20036;-48
2022/08/10 10:57:04;;;;;;;4.60;1.90;;;34.80;44.10;;;;;;5111310;27;20027;-51
2022/08/10 10:59:58;;;;;;;4.55;1.38;;;35.80;42.60;;;;;;5102520;28;20480;-49
2022/08/10 11:02:48;;;;;;;3.88;1.25;;;36.50;41.20;;;;;;5108408;28;20054;-48
2022/08/10 11:05:32;;;;;;;3.88;1.00;;;36.80;42.80;;;;;;5111796;27;20069;-48
2022/08/10 11:08:14;;;;;;;5.32;1.30;;;37.00;40.90;;;;;;5098219;28;20038;-46
2022/08/10 11:11:05;;;;;;;3.17;1.10;;;36.60;41.80;;;;;;5105930;27;20016;-47
2022/08/10 11:13:39;;;;;;;4.15;1.40;;;36.50;41.20;;;;;;5100245;28;20053;-47
2022/08/10 11:16:46;;;;;;;2.83;1.27;;;36.20;41.60;;;;;;5115960;27;20052;-47
2022/08/10 11:19:38;;;;;;;3.80;1.35;;;36.20;41.80;;;;;;5107571;28;20110;-46
2022/08/10 11:22:19;;;;;;;5.78;1.88;;;36.60;42.00;;;;;;5093899;28;20024;-47
2022/08/10 11:25:03;;;;;;;6.10;1.45;;;35.60;41.80;;;;;;5112589;27;20076;-46
2022/08/10 11:27:50;;;;;;;3.28;1.33;;;35.70;43.00;;;;;;5110730;28;20093;-48
2022/08/10 11:30:26;;;;;;;2.20;1.10;;;35.90;41.90;;;;;;5112522;27;20051;-45
2022/08/10 11:33:21;;;;;;;4.75;1.40;;;36.00;42.00;;;;;;5102739;28;20028;-50
2022/08/10 11:35:55;;;;;;;3.58;1.30;;;35.60;41.20;;;;;;5107907;27;20074;-47
2022/08/10 11:38:52;;;;;;;3.30;1.27;;;35.50;43.40;;;;;;5113231;28;20034;-47
2022/08/10 11:41:39;;;;;;;2.90;1.27;;;35.10;41.90;;;;;;5115902;27;20079;-46
2022/08/10 11:44:28;;;;;;;3.25;1.20;;;35.20;43.30;;;;;;5109547;28;20106;-45
2022/08/10 11:47:18;;;;;;;5.85;1.35;;;34.90;41.10;;;;;;5112636;27;20028;-48
2022/08/10 11:49:56;;;;;;;4.45;1.30;;;35.00;42.10;;;;;;5108333;27;20020;-47
2022/08/10 11:52:26;;;;;;;;;;;33.50;41.20;;;;;;5113639;27;20096;-43
2022/08/10 11:55:01;;;;;;;3.35;1.33;;;33.70;43.10;;;;;;5109829;27;19918;-46
2022/08/10 11:57:30;;;;;;;3.58;1.27;;;33.40;44.00;;;;;;5104914;28;20034;-49
2022/08/10 11:59:56;;;;;;;4.88;1.40;;;34.10;44.50;;;;;;5116421;27;20043;-50
2022/08/10 12:02:44;;;;;;;5.95;1.60;;;33.90;43.90;;;;;;5116085;27;20034;-47
2022/08/10 12:05:22;;;;;;;3.15;1.40;;;33.80;42.90;;;;;;5117734;27;20053;-50
2022/08/10 12:07:53;;;;;;;;;;;33.80;42.30;;;;;;5110111;27;20517;-48
2022/08/10 12:10:22;;;;;;;2.85;1.20;;;34.00;41.90;;;;;;5111015;27;19908;-46
2022/08/10 12:13:21;;;;;;;4.35;1.40;;;34.20;42.30;;;;;;5110034;28;20020;-45
2022/08/10 12:16:00;;;;;;;6.50;1.65;;;33.70;44.00;;;;;;5109175;27;20047;-53
2022/08/10 12:18:37;;;;;;;5.05;1.50;;;33.60;44.50;;;;;;5103357;28;20077;-49
2022/08/10 12:21:10;;;;;;;2.63;1.23;;;33.50;45.70;;;;;;5100050;27;20036;-53
2022/08/10 12:23:55;;;;;;;2.28;1.20;;;33.80;43.90;;;;;;5108276;27;20020;-50
2022/08/10 12:26:47;;;;;;;3.17;1.50;;;34.20;43.40;;;;;;5115277;27;20040;-50
2022/08/10 12:29:30;;;;;;;2.90;1.30;;;33.60;42.80;;;;;;5104316;28;20036;-57
2022/08/10 12:32:10;;;;;;;2.85;1.30;;;33.50;42.90;;;;;;5101235;27;20024;-47
2022/08/10 12:35:13;;;;;;;5.07;1.65;;;33.40;46.10;;;;;;5101277;27;20028;-50
2022/08/10 12:37:48;;;;;;;2.63;1.30;;;33.90;45.40;;;;;;5103878;27;21180;-45
2022/08/10 12:40:13;;;;;;;3.72;1.42;;;33.90;44.00;;;;;;5110311;27;20042;-45
2022/08/10 12:42:43;;;;;;;3.67;1.30;;;33.80;43.50;;;;;;5101951;28;20024;-47
2022/08/10 12:45:22;;;;;;;2.58;1.10;;;33.40;43.30;;;;;;5100796;27;20463;-48
2022/08/10 12:48:19;;;;;;;4.18;1.40;;;33.60;45.00;;;;;;5102713;28;20148;-51
2022/08/10 12:51:05;;;;;;;3.63;1.45;;;33.40;43.70;;;;;;5095900;27;20164;-48
2022/08/10 12:53:56;;;;;;;5.78;1.40;;;32.90;45.20;;;;;;5107222;28;20097;-51
2022/08/10 12:56:28;;;;;;;2.58;1.38;;;32.80;45.40;;;;;;5108282;27;20019;-52
2022/08/10 12:58:55;;;;;;;3.67;1.30;;;32.80;46.40;;;;;;5106793;28;20054;-47
2022/08/10 13:01:26;;;;;;;4.25;1.55;;;33.10;46.20;;;;;;5110189;28;20063;-50
2022/08/10 13:03:57;;;;;;;5.38;1.55;;;33.20;45.20;;;;;;5108844;28;20027;-47
2022/08/10 13:06:25;;;;;;;3.63;1.58;;;33.00;45.90;;;;;;5115886;27;20027;-45
2022/08/10 13:09:07;;;;;;;4.25;1.40;;;32.50;46.10;;;;;;5110205;28;20494;-49
2022/08/10 13:11:36;;;;;;;4.13;1.60;;;32.10;46.90;;;;;;5117595;27;20023;-45
2022/08/10 13:14:22;;;;;;;4.00;1.15;;;32.20;47.00;;;;;;5105807;27;20031;-46
2022/08/10 13:16:50;;;;;;;2.92;1.35;;;32.30;48.30;;;;;;5105525;27;20066;-44
2022/08/10 13:19:20;;;;;;;2.78;1.40;;;32.40;47.60;;;;;;5103960;28;20031;-49
2022/08/10 13:21:47;;;;;;;3.30;1.40;;;32.50;47.60;;;;;;5107949;27;20055;-47
2022/08/10 13:24:21;;;;;;;3.67;1.38;;;31.70;47.10;;;;;;5104435;28;20034;-47
2022/08/10 13:27:01;;;;;;;3.10;1.35;;;31.90;48.40;;;;;;5110193;27;20028;-49
2022/08/10 13:29:31;;;;;;;2.55;1.40;;;32.20;49.40;;;;;;5098023;28;20020;-46
2022/08/10 13:31:59;;;;;;;7.93;1.30;;;32.80;48.50;;;;;;5104458;27;20049;-47
2022/08/10 13:34:27;;;;;;;3.08;1.40;;;32.90;47.70;;;;;;5102469;28;20024;-47